createdAt,value
2019-05-03T00:02:28.813Z,12.40
2019-05-03T00:05:07.161Z,12.40
2019-05-03T00:07:34.750Z,12.40
2019-05-03T00:10:02.835Z,12.40
2019-05-03T00:12:30.464Z,12.40
2019-05-03T00:15:04.081Z,12.40
2019-05-03T00:17:32.485Z,12.30
2019-05-03T00:20:02.199Z,12.20
2019-05-03T00:22:29.534Z,12.20
2019-05-03T00:25:06.058Z,12.20
2019-05-03T00:27:26.423Z,12.20
2019-05-03T00:29:53.978Z,12.10
2019-05-03T00:32:23.725Z,12.20
2019-05-03T00:34:53.193Z,12.30
2019-05-03T00:37:22.748Z,12.20
2019-05-03T00:40:06.769Z,12.20
2019-05-03T00:42:34.286Z,12.10
2019-05-03T00:45:02.321Z,12.00
2019-05-03T00:47:29.962Z,11.90
2019-05-03T00:49:57.926Z,11.90
2019-05-03T00:52:25.736Z,11.90
2019-05-03T00:54:53.442Z,11.90
2019-05-03T00:57:22.710Z,11.90
2019-05-03T00:59:50.386Z,11.80
2019-05-03T01:02:18.048Z,11.90
2019-05-03T01:04:45.606Z,11.80
2019-05-03T01:07:13.110Z,11.90
2019-05-03T01:09:42.270Z,11.90
2019-05-03T01:12:10.128Z,11.90
2019-05-03T01:14:38.977Z,11.80
2019-05-03T01:17:06.516Z,11.90
2019-05-03T01:19:34.153Z,12.00
2019-05-03T01:22:03.159Z,12.00
2019-05-03T01:24:34.022Z,12.00
2019-05-03T01:27:02.047Z,11.90
2019-05-03T01:29:29.607Z,12.00
2019-05-03T01:31:57.164Z,12.10
2019-05-03T01:34:24.700Z,12.10
2019-05-03T01:36:52.198Z,12.10
2019-05-03T01:39:22.065Z,12.20
2019-05-03T01:41:51.781Z,12.30
2019-05-03T01:44:19.619Z,12.30
2019-05-03T01:46:48.479Z,12.30
2019-05-03T01:49:35.508Z,12.30
2019-05-03T01:52:28.574Z,12.40
2019-05-03T01:54:56.192Z,12.40
2019-05-03T01:57:23.750Z,12.20
2019-05-03T01:59:52.066Z,12.10
2019-05-03T02:02:37.922Z,12.20
2019-05-03T02:05:27.890Z,12.20
2019-05-03T02:07:55.429Z,12.30
2019-05-03T02:10:22.972Z,12.30
2019-05-03T02:12:52.167Z,12.40
2019-05-03T02:15:21.786Z,12.50
2019-05-03T02:17:51.911Z,12.60
2019-05-03T02:20:23.170Z,12.50
2019-05-03T02:22:57.483Z,12.50
2019-05-03T02:25:28.839Z,12.60
2019-05-03T02:27:57.657Z,12.50
2019-05-03T02:30:27.406Z,12.50
2019-05-03T02:32:59.217Z,12.50
2019-05-03T02:35:28.073Z,12.50
2019-05-03T02:37:59.497Z,12.50
2019-05-03T02:40:33.793Z,12.40
2019-05-03T02:43:12.684Z,12.40
2019-05-03T02:45:59.003Z,12.40
2019-05-03T02:48:40.253Z,12.40
2019-05-03T02:51:12.056Z,12.40
2019-05-03T02:53:45.493Z,12.30
2019-05-03T02:56:21.058Z,12.30
2019-05-03T02:58:46.085Z,12.30
2019-05-03T03:01:16.210Z,12.30
2019-05-03T03:03:45.732Z,12.30
2019-05-03T03:06:17.405Z,12.40
2019-05-03T03:08:47.427Z,12.30
2019-05-03T03:11:16.868Z,12.30
2019-05-03T03:13:46.072Z,12.30
2019-05-03T03:16:16.288Z,12.30
2019-05-03T03:18:45.829Z,12.30
2019-05-03T03:21:16.595Z,12.30
2019-05-03T03:24:08.242Z,12.10
2019-05-03T03:26:42.908Z,12.20
2019-05-03T03:29:09.794Z,12.20
2019-05-03T03:32:29.360Z,12.20
2019-05-03T03:35:11.078Z,12.20
2019-05-03T03:37:35.301Z,12.40
2019-05-03T03:40:06.032Z,12.30
2019-05-03T03:42:38.206Z,12.30
2019-05-03T03:45:07.007Z,12.30
2019-05-03T03:47:37.524Z,12.30
2019-05-03T03:50:09.336Z,12.30
2019-05-03T03:52:37.224Z,12.30
2019-05-03T03:55:07.725Z,12.30
2019-05-03T03:57:36.577Z,12.30
2019-05-03T04:00:06.955Z,12.40
2019-05-03T04:02:35.505Z,12.40
2019-05-03T04:05:05.586Z,12.40
2019-05-03T04:07:35.928Z,12.40
2019-05-03T04:10:19.554Z,12.40
2019-05-03T04:12:52.647Z,12.40
2019-05-03T04:15:47.877Z,12.40
2019-05-03T04:18:26.785Z,12.30
2019-05-03T04:20:58.115Z,12.20
2019-05-03T04:23:30.415Z,12.20
2019-05-03T04:26:01.090Z,12.00
2019-05-03T04:28:30.855Z,12.10
2019-05-03T04:31:02.355Z,12.10
2019-05-03T04:33:30.823Z,12.10
2019-05-03T04:35:58.834Z,12.20
2019-05-03T04:38:26.489Z,12.10
2019-05-03T04:40:56.197Z,12.10
2019-05-03T04:43:26.558Z,12.10
2019-05-03T04:46:08.987Z,12.20
2019-05-03T04:48:36.594Z,12.20
2019-05-03T04:51:05.953Z,12.20
2019-05-03T04:53:38.377Z,12.10
2019-05-03T04:56:06.976Z,12.20
2019-05-03T04:58:36.488Z,12.30
2019-05-03T05:01:06.272Z,12.40
2019-05-03T05:03:36.077Z,12.40
2019-05-03T05:06:06.317Z,12.40
2019-05-03T05:08:35.597Z,12.50
2019-05-03T05:11:05.201Z,12.60
2019-05-03T05:13:32.147Z,12.50
2019-05-03T05:15:59.732Z,12.50
2019-05-03T05:18:35.549Z,12.40
2019-05-03T05:21:09.820Z,12.30
2019-05-03T05:23:56.467Z,12.50
2019-05-03T05:26:25.932Z,12.60
2019-05-03T05:28:56.631Z,12.70
2019-05-03T05:31:25.465Z,12.70
2019-05-03T05:33:54.517Z,12.80
2019-05-03T05:36:22.108Z,12.80
2019-05-03T05:38:49.679Z,12.70
2019-05-03T05:41:17.213Z,12.70
2019-05-03T05:43:44.869Z,12.80
2019-05-03T05:46:14.494Z,12.70
2019-05-03T05:48:46.518Z,12.60
2019-05-03T05:51:15.962Z,12.70
2019-05-03T05:53:44.758Z,12.70
2019-05-03T05:56:35.339Z,12.80
2019-05-03T05:59:28.336Z,12.80
2019-05-03T06:01:59.654Z,12.90
2019-05-03T06:04:27.207Z,12.90
2019-05-03T06:07:14.855Z,12.80
2019-05-03T06:10:00.571Z,12.90
2019-05-03T06:12:35.297Z,12.90
2019-05-03T06:15:07.848Z,12.90
2019-05-03T06:17:41.969Z,12.90
2019-05-03T06:20:21.641Z,12.90
2019-05-03T06:22:59.194Z,12.90
2019-05-03T06:25:31.554Z,12.80
2019-05-03T06:28:00.370Z,12.60
2019-05-03T06:30:37.544Z,12.50
2019-05-03T06:33:05.402Z,12.40
2019-05-03T06:35:34.586Z,12.40
2019-05-03T06:38:02.191Z,12.40
2019-05-03T06:40:30.160Z,12.30
2019-05-03T06:43:08.629Z,12.20
2019-05-03T06:45:27.125Z,12.20
2019-05-03T06:47:55.078Z,12.10
2019-05-03T06:50:25.242Z,12.00
2019-05-03T06:52:54.802Z,12.00
2019-05-03T06:55:24.605Z,11.80
2019-05-03T06:57:52.084Z,11.80
2019-05-03T07:00:57.694Z,11.80
2019-05-03T07:03:54.889Z,11.90
2019-05-03T07:06:37.480Z,12.00
2019-05-03T07:09:27.366Z,11.90
2019-05-03T07:11:55.572Z,12.00
2019-05-03T07:14:24.686Z,12.00
2019-05-03T07:16:52.378Z,11.90
2019-05-03T07:19:19.996Z,11.90
2019-05-03T07:21:47.819Z,12.00
2019-05-03T07:24:15.432Z,11.90
2019-05-03T07:26:44.832Z,11.90
2019-05-03T07:29:12.611Z,12.10
2019-05-03T07:31:40.380Z,12.30
2019-05-03T07:34:09.185Z,12.40
2019-05-03T07:36:36.899Z,12.30
2019-05-03T07:39:06.403Z,12.40
2019-05-03T07:41:35.631Z,12.40
2019-05-03T07:44:05.214Z,12.30
2019-05-03T07:46:34.743Z,12.20
2019-05-03T07:49:02.173Z,12.10
2019-05-03T07:51:29.722Z,11.90
2019-05-03T07:53:57.397Z,11.80
2019-05-03T07:56:44.576Z,11.80
2019-05-03T07:59:14.876Z,11.90
2019-05-03T08:01:54.531Z,11.90
2019-05-03T08:04:25.706Z,11.90
2019-05-03T08:07:01.622Z,11.80
2019-05-03T08:09:30.458Z,11.80
2019-05-03T08:11:58.441Z,11.90
2019-05-03T08:14:36.544Z,11.80
2019-05-03T08:17:56.420Z,11.80
2019-05-03T08:20:25.740Z,11.70
2019-05-03T08:23:09.285Z,11.70
2019-05-03T08:25:56.462Z,11.70
2019-05-03T08:28:29.974Z,11.80
2019-05-03T08:31:47.258Z,11.80
2019-05-03T08:34:35.626Z,11.90
2019-05-03T08:37:18.000Z,12.00
2019-05-03T08:40:46.395Z,12.00
2019-05-03T08:43:15.629Z,12.00
2019-05-03T08:45:49.618Z,11.90
2019-05-03T08:48:28.201Z,11.90
2019-05-03T08:51:04.487Z,12.00
2019-05-03T08:53:45.897Z,12.00
2019-05-03T08:56:16.657Z,12.10
2019-05-03T08:59:10.361Z,12.20
2019-05-03T09:01:46.719Z,12.10
2019-05-03T09:04:35.988Z,12.20
2019-05-03T09:07:01.905Z,12.20
2019-05-03T09:10:18.760Z,12.50
2019-05-03T09:13:34.279Z,12.60
2019-05-03T09:16:07.428Z,12.70
2019-05-03T09:18:41.949Z,12.80
2019-05-03T09:21:32.158Z,12.70
2019-05-03T09:24:17.341Z,12.80
2019-05-03T09:26:56.291Z,12.70
2019-05-03T09:30:06.878Z,12.60
2019-05-03T09:32:40.899Z,13.00
2019-05-03T09:35:36.272Z,13.10
2019-05-03T09:38:07.963Z,13.20
2019-05-03T09:40:45.374Z,13.30
2019-05-03T09:43:22.396Z,13.20
2019-05-03T09:45:54.683Z,13.40
2019-05-03T09:48:31.583Z,13.40
2019-05-03T09:51:14.462Z,13.30
2019-05-03T09:54:00.605Z,13.50
2019-05-03T09:57:06.366Z,13.60
2019-05-03T10:00:16.180Z,13.70
2019-05-03T10:02:45.780Z,13.90
2019-05-03T10:05:25.543Z,13.80
2019-05-03T10:08:01.431Z,14.00
2019-05-03T10:10:37.880Z,14.20
2019-05-03T10:13:26.958Z,14.20
2019-05-03T10:16:07.328Z,14.30
2019-05-03T10:19:03.092Z,14.20
2019-05-03T10:21:48.742Z,14.20
2019-05-03T10:24:26.205Z,14.30
2019-05-03T10:27:05.625Z,14.50
2019-05-03T10:30:09.060Z,14.50
2019-05-03T10:32:46.624Z,14.30
2019-05-03T10:35:54.440Z,14.30
2019-05-03T10:38:39.859Z,14.30
2019-05-03T10:41:32.002Z,14.30
2019-05-03T10:44:14.912Z,14.10
2019-05-03T10:46:45.306Z,14.00
2019-05-03T10:49:29.673Z,13.90
2019-05-03T10:52:08.188Z,13.90
2019-05-03T10:55:01.693Z,13.80
2019-05-03T10:57:41.335Z,13.70
2019-05-03T11:00:44.251Z,13.60
2019-05-03T11:02:59.906Z,13.40
2019-05-03T11:05:27.664Z,13.20
2019-05-03T11:08:04.908Z,13.10
2019-05-03T11:10:43.344Z,13.10
2019-05-03T11:13:22.427Z,13.10
2019-05-03T11:15:54.914Z,13.10
2019-05-03T11:18:25.274Z,13.10
2019-05-03T11:20:57.964Z,13.10
2019-05-03T11:23:34.576Z,13.30
2019-05-03T11:26:02.836Z,13.30
2019-05-03T11:28:31.182Z,13.30
2019-05-03T11:31:29.086Z,13.30
2019-05-03T11:34:00.925Z,13.40
2019-05-03T11:36:40.006Z,13.40
2019-05-03T11:39:11.612Z,13.30
2019-05-03T11:41:45.120Z,13.30
2019-05-03T11:44:51.123Z,13.20
2019-05-03T11:47:19.396Z,12.90
2019-05-03T11:49:47.319Z,12.70
2019-05-03T11:52:17.584Z,12.60
2019-05-03T11:54:45.785Z,12.60
2019-05-03T11:57:27.006Z,12.60
2019-05-03T11:59:57.636Z,12.80
2019-05-03T12:02:55.439Z,12.80
2019-05-03T12:05:33.437Z,12.80
2019-05-03T12:08:15.849Z,12.90
2019-05-03T12:10:53.492Z,12.80
2019-05-03T12:13:36.199Z,12.90
2019-05-03T12:16:31.993Z,12.90
2019-05-03T12:19:31.197Z,13.10
2019-05-03T12:22:08.483Z,13.20
2019-05-03T12:24:46.526Z,13.40
2019-05-03T12:27:51.713Z,13.50
2019-05-03T12:30:59.620Z,13.60
2019-05-03T12:33:35.415Z,13.70
2019-05-03T12:36:05.352Z,13.80
2019-05-03T12:38:34.988Z,13.90
2019-05-03T12:41:05.364Z,13.80
2019-05-03T12:43:37.831Z,13.80
2019-05-03T12:46:05.829Z,13.90
2019-05-03T12:48:40.332Z,13.90
2019-05-03T12:51:15.232Z,14.00
2019-05-03T12:54:01.028Z,14.10
2019-05-03T12:56:46.964Z,14.10
2019-05-03T12:59:39.394Z,14.00
2019-05-03T13:02:35.738Z,14.00
2019-05-03T13:05:08.122Z,14.00
2019-05-03T13:07:42.140Z,14.10
2019-05-03T13:10:10.542Z,14.00
2019-05-03T13:12:52.805Z,14.00
2019-05-03T13:15:20.177Z,14.10
2019-05-03T13:17:58.287Z,14.10
2019-05-03T13:20:31.302Z,14.20
2019-05-03T13:23:05.523Z,14.10
2019-05-03T13:25:38.402Z,14.20
2019-05-03T13:28:09.178Z,14.10
2019-05-03T13:30:38.789Z,14.20
2019-05-03T13:33:23.146Z,14.20
2019-05-03T13:36:12.488Z,14.20
2019-05-03T13:42:53.055Z,14.20
2019-05-03T13:45:16.755Z,14.20
2019-05-03T13:48:04.989Z,14.20
2019-05-03T13:50:35.173Z,14.20
2019-05-03T13:53:04.911Z,14.30
2019-05-03T13:56:30.074Z,14.30
2019-05-03T13:59:41.111Z,14.40
2019-05-03T14:03:59.878Z,14.60
2019-05-03T14:13:05.622Z,14.80
2019-05-03T14:13:59.228Z,14.70
2019-05-03T14:16:27.237Z,14.70
2019-05-03T14:19:02.519Z,14.70
2019-05-03T14:21:39.502Z,14.60
2019-05-03T14:24:09.138Z,14.40
2019-05-03T14:26:38.029Z,14.50
2019-05-03T14:29:09.885Z,14.40
2019-05-03T14:31:41.581Z,14.50
2019-05-03T14:34:10.161Z,14.60
2019-05-03T14:36:41.133Z,14.70
2019-05-03T14:39:11.176Z,14.70
2019-05-03T14:41:46.778Z,14.80
2019-05-03T14:44:18.029Z,14.90
2019-05-03T14:46:48.652Z,15.00
2019-05-03T14:49:17.181Z,14.90
2019-05-03T14:51:45.981Z,14.90
2019-05-03T14:54:14.564Z,15.00
2019-05-03T14:56:53.895Z,14.90
2019-05-03T14:59:50.281Z,14.80
2019-05-03T15:02:40.169Z,14.80
2019-05-03T15:04:59.738Z,15.00
2019-05-03T15:07:30.412Z,15.00
2019-05-03T15:09:58.593Z,14.90
2019-05-03T15:12:28.167Z,15.00
2019-05-03T15:14:56.369Z,15.00
2019-05-03T15:17:24.816Z,14.90
2019-05-03T15:19:54.747Z,14.80
2019-05-03T15:22:26.174Z,14.90
2019-05-03T15:24:54.706Z,14.90
2019-05-03T15:27:26.747Z,14.80
2019-05-03T15:29:57.867Z,14.80
2019-05-03T15:32:27.411Z,14.90
2019-05-03T15:34:57.723Z,14.90
2019-05-03T15:37:27.736Z,15.00
2019-05-03T15:39:56.480Z,14.90
2019-05-03T15:42:29.394Z,15.10
2019-05-03T15:45:16.512Z,14.80
2019-05-03T15:48:05.466Z,15.00
2019-05-03T15:50:44.618Z,15.10
2019-05-03T15:53:15.183Z,15.10
2019-05-03T15:55:43.214Z,15.20
2019-05-03T15:58:15.370Z,15.20
2019-05-03T16:00:45.785Z,15.20
2019-05-03T16:03:17.147Z,15.20
2019-05-03T16:05:49.862Z,15.20
2019-05-03T16:08:18.181Z,15.30
2019-05-03T16:10:48.171Z,15.20
2019-05-03T16:13:16.515Z,15.20
2019-05-03T16:15:44.660Z,15.30
2019-05-03T16:18:16.040Z,15.20
2019-05-03T16:20:45.056Z,15.20
2019-05-03T16:23:15.460Z,15.20
2019-05-03T16:25:45.001Z,15.30
2019-05-03T16:28:24.840Z,15.30
2019-05-03T16:31:00.244Z,15.20
2019-05-03T16:33:28.409Z,15.30
2019-05-03T16:35:57.915Z,15.00
2019-05-03T16:38:27.884Z,14.80
2019-05-03T16:40:56.074Z,15.00
2019-05-03T16:43:26.216Z,15.00
2019-05-03T16:45:55.360Z,15.00
2019-05-03T16:48:25.528Z,15.00
2019-05-03T16:50:53.931Z,15.10
2019-05-03T16:53:25.492Z,15.00
2019-05-03T16:55:54.820Z,15.00
2019-05-03T16:58:24.725Z,15.00
2019-05-03T17:00:55.276Z,15.10
2019-05-03T17:03:38.450Z,14.90
2019-05-03T17:06:23.162Z,14.80
2019-05-03T17:09:09.530Z,14.90
2019-05-03T17:11:38.150Z,14.80
2019-05-03T17:14:15.500Z,14.60
2019-05-03T17:16:42.454Z,14.50
2019-05-03T17:19:11.297Z,14.50
2019-05-03T17:21:51.646Z,14.20
2019-05-03T17:24:35.296Z,14.30
2019-05-03T17:27:07.856Z,14.30
2019-05-03T17:29:56.840Z,14.00
2019-05-03T17:32:30.492Z,14.10
2019-05-03T17:34:58.981Z,14.10
2019-05-03T17:37:27.197Z,14.20
2019-05-03T17:40:21.453Z,13.90
2019-05-03T17:43:14.616Z,14.00
2019-05-03T17:45:49.135Z,14.10
2019-05-03T17:48:17.528Z,14.20
2019-05-03T17:50:46.302Z,14.00
2019-05-03T17:53:57.206Z,13.70
2019-05-03T17:56:52.853Z,13.60
2019-05-03T18:00:00.371Z,13.70
2019-05-03T18:02:45.225Z,13.90
2019-05-03T18:05:56.499Z,13.90
2019-05-03T18:08:44.517Z,14.20
2019-05-03T18:11:17.854Z,14.10
2019-05-03T18:13:50.526Z,13.90
2019-05-03T18:31:55.085Z,13.80
2019-05-03T18:37:32.388Z,13.80
2019-05-03T18:40:00.727Z,13.80
2019-05-03T18:42:35.725Z,13.80
2019-05-03T18:45:20.466Z,13.80
2019-05-03T18:48:01.718Z,13.70
2019-05-03T18:50:31.816Z,13.70
2019-05-03T18:52:59.832Z,13.80
2019-05-03T18:55:27.776Z,13.90
2019-05-03T18:57:57.892Z,13.70
2019-05-03T19:00:29.898Z,13.70
2019-05-03T19:02:58.148Z,13.70
2019-05-03T19:05:28.304Z,13.60
2019-05-03T19:08:07.808Z,13.70
2019-05-03T19:10:45.729Z,13.60
2019-05-03T19:13:34.847Z,13.60
2019-05-03T19:16:12.081Z,13.70
2019-05-03T19:18:40.240Z,13.70
2019-05-03T19:21:08.257Z,13.70
2019-05-03T19:23:36.286Z,13.70
2019-05-03T19:26:11.059Z,13.70
2019-05-03T19:28:39.455Z,13.60
2019-05-03T19:31:11.177Z,13.60
2019-05-03T19:33:42.100Z,13.60
2019-05-03T19:36:10.233Z,13.60
2019-05-03T19:38:39.869Z,13.50
2019-05-03T19:41:07.973Z,13.40
2019-05-03T19:43:38.130Z,13.30
2019-05-03T19:46:07.493Z,13.20
2019-05-03T19:48:50.631Z,13.20
2019-05-03T19:51:19.137Z,13.30
2019-05-03T19:53:51.909Z,13.30
2019-05-03T19:56:21.238Z,13.10
2019-05-03T19:58:50.210Z,13.10
2019-05-03T20:01:41.415Z,13.20
2019-05-03T20:04:36.445Z,13.10
2019-05-03T20:07:19.370Z,13.10
2019-05-03T20:09:49.336Z,12.90
2019-05-03T20:12:17.480Z,12.80
2019-05-03T20:14:45.751Z,12.80
2019-05-03T20:17:14.821Z,12.80
2019-05-03T20:19:45.047Z,12.90
2019-05-03T20:22:15.018Z,12.90
2019-05-03T20:24:44.933Z,12.90
2019-05-03T20:27:15.021Z,12.90
2019-05-03T20:29:44.334Z,12.80
2019-05-03T20:32:13.064Z,12.80
2019-05-03T20:34:52.046Z,12.70
2019-05-03T20:37:30.115Z,12.60
2019-05-03T20:39:58.247Z,12.60
2019-05-03T20:42:44.841Z,12.60
2019-05-03T20:45:18.312Z,12.60
2019-05-03T20:47:57.596Z,12.40
2019-05-03T20:50:27.137Z,12.40
2019-05-03T20:52:55.151Z,12.40
2019-05-03T20:55:23.051Z,12.30
2019-05-03T20:57:50.661Z,12.30
2019-05-03T21:00:21.516Z,12.20
2019-05-03T21:02:53.382Z,12.00
2019-05-03T21:05:27.758Z,12.00
2019-05-03T21:07:48.130Z,12.00
2019-05-03T21:10:15.808Z,12.10
2019-05-03T21:12:43.471Z,12.10
2019-05-03T21:15:18.939Z,12.10
2019-05-03T21:17:55.551Z,12.10
2019-05-03T21:21:00.986Z,12.00
2019-05-03T21:23:30.257Z,12.00
2019-05-03T21:26:12.480Z,12.00
2019-05-03T21:28:34.534Z,11.90
2019-05-03T21:31:02.626Z,11.90
2019-05-03T21:33:30.391Z,11.90
2019-05-03T21:35:57.983Z,12.00
2019-05-03T21:38:25.541Z,12.00
2019-05-03T21:40:54.646Z,12.00
2019-05-03T21:43:22.375Z,12.00
2019-05-03T21:45:55.002Z,11.90
2019-05-03T21:48:26.567Z,11.90
2019-05-03T21:50:54.214Z,11.90
2019-05-03T21:53:21.771Z,11.80
2019-05-03T21:55:49.376Z,11.70
2019-05-03T21:58:16.916Z,11.70
2019-05-03T22:00:59.103Z,11.80
2019-05-03T22:03:26.676Z,11.60
2019-05-03T22:05:57.405Z,11.40
2019-05-03T22:08:24.858Z,11.30
2019-05-03T22:10:52.654Z,11.40
2019-05-03T22:13:20.220Z,11.40
2019-05-03T22:15:55.627Z,11.40
2019-05-03T22:18:27.395Z,11.40
2019-05-03T22:21:10.580Z,11.50
2019-05-03T22:23:49.653Z,11.60
2019-05-03T22:26:17.183Z,11.70
2019-05-03T22:28:44.761Z,11.70
2019-05-03T22:31:12.288Z,11.50
2019-05-03T22:33:39.909Z,11.50
2019-05-03T22:36:08.919Z,11.50
2019-05-03T22:38:38.505Z,11.60
2019-05-03T22:41:06.119Z,11.70
2019-05-03T22:43:34.856Z,11.70
2019-05-03T22:46:02.573Z,11.60
2019-05-03T22:48:30.153Z,11.50
2019-05-03T22:50:57.687Z,11.50
2019-05-03T22:53:25.437Z,11.50
2019-05-03T22:55:54.323Z,11.40
2019-05-03T22:58:22.012Z,11.20
2019-05-03T23:00:49.614Z,11.30
2019-05-03T23:03:17.208Z,11.40
2019-05-03T23:05:45.592Z,11.50
2019-05-03T23:08:14.831Z,11.50
2019-05-03T23:10:42.537Z,11.40
2019-05-03T23:13:10.056Z,11.50
2019-05-03T23:15:37.931Z,11.60
2019-05-03T23:18:05.750Z,11.60
2019-05-03T23:20:56.028Z,11.50
2019-05-03T23:23:41.471Z,11.60
2019-05-03T23:26:09.080Z,11.50
2019-05-03T23:28:36.684Z,11.30
2019-05-03T23:31:05.361Z,11.10
2019-05-03T23:33:34.481Z,11.00
2019-05-03T23:36:02.045Z,10.90
2019-05-03T23:38:29.660Z,10.90
2019-05-03T23:40:57.163Z,11.00
2019-05-03T23:43:25.176Z,11.10
2019-05-03T23:45:54.483Z,11.10
2019-05-03T23:48:22.141Z,11.20
2019-05-03T23:50:49.717Z,11.30
2019-05-03T23:53:17.220Z,11.40
2019-05-03T23:55:48.527Z,11.40
2019-05-03T23:58:16.062Z,11.30
